Time;durP1;ratioP1;P1;durP2;ratioP2;P2;SDS_P1;SDS_P2;PMS_P1;PMS_P2;Temp;Humidity;BMP_temperature;BMP_pressure;BME280_temperature;BME280_humidity;BME280_pressure;Samples;Min_cycle;Max_cycle;Signal;HPM_P1;HPM_P2
2022/12/12 00:00:40;;;;;;;;;;;;;;;;;;4996520;28;19932;-52
2022/12/12 00:03:06;;;;;;;;;;;;;;;;;;4996697;28;19921;-52
2022/12/12 00:05:31;;;;;;;;;;;;;;;;;;4999002;28;19925;-53
2022/12/12 00:07:57;;;;;;;;;;;;;;;;;;4997515;28;20249;-52
2022/12/12 00:10:23;;;;;;;;;;;;;;;;;;4971162;28;20052;-53
2022/12/12 00:12:49;;;;;;;;;;;;;;;;;;4975805;28;20451;-52
2022/12/12 00:15:15;;;;;;;;;;;;;;;;;;4978703;28;19921;-52
2022/12/12 00:17:41;;;;;;;;;;;;;;;;;;4993109;28;20414;-52
2022/12/12 00:20:07;;;;;;;;;;;;;;;;;;4968654;28;20402;-52
2022/12/12 00:22:33;;;;;;;;;;;;;;;;;;4981163;28;20002;-51
2022/12/12 00:24:58;;;;;;;;;;;;;;;;;;4987569;28;19977;-52
2022/12/12 00:27:24;;;;;;;;;;;;;;;;;;4987384;28;20046;-52
2022/12/12 00:29:50;;;;;;;;;;;;;;;;;;4989258;28;19926;-52
2022/12/12 00:32:16;;;;;;;;;;;;;;;;;;4982713;28;19922;-53
2022/12/12 00:34:42;;;;;;;;;;;;;;;;;;4988247;28;20410;-52
2022/12/12 00:37:08;;;;;;;;;;;;;;;;;;4991171;28;19925;-52
2022/12/12 00:39:34;;;;;;;;;;;;;;;;;;4999125;28;20075;-52
2022/12/12 00:41:59;;;;;;;;;;;;;;;;;;4993181;28;19918;-53
2022/12/12 00:44:25;;;;;;;;;;;;;;;;;;5007070;28;20014;-51
2022/12/12 00:46:51;;;;;;;;;;;;;;;;;;4998557;28;19921;-52
2022/12/12 00:49:17;;;;;;;;;;;;;;;;;;5009643;28;19932;-52
2022/12/12 00:51:43;;;;;;;;;;;;;;;;;;5015071;28;19940;-51
2022/12/12 00:54:09;;;;;;;;;;;;;;;;;;4998873;28;20390;-52
2022/12/12 00:56:35;;;;;;;;;;;;;;;;;;4990384;28;19925;-53
2022/12/12 00:59:01;;;;;;;;;;;;;;;;;;4982383;28;19949;-52
2022/12/12 01:01:27;;;;;;;;;;;;;;;;;;4978307;28;20482;-53
2022/12/12 01:03:53;;;;;;;;;;;;;;;;;;4976739;28;19926;-53
2022/12/12 01:06:19;;;;;;;;;;;;;;;;;;4987713;28;19926;-52
2022/12/12 01:08:45;;;;;;;;;;;;;;;;;;4987715;28;19929;-52
2022/12/12 01:11:10;;;;;;;;;;;;;;;;;;4978164;28;20963;-52
2022/12/12 01:13:36;;;;;;;;;;;;;;;;;;4985455;28;19925;-52
2022/12/12 01:16:02;;;;;;;;;;;;;;;;;;4977207;28;20405;-52
2022/12/12 01:18:28;;;;;;;;;;;;;;;;;;4976697;28;19922;-52
2022/12/12 01:20:54;;;;;;;;;;;;;;;;;;4966514;28;20363;-54
2022/12/12 01:23:20;;;;;;;;;;;;;;;;;;4969963;28;20520;-52
2022/12/12 01:25:46;;;;;;;;;;;;;;;;;;4971761;28;19920;-52
2022/12/12 01:28:12;;;;;;;;;;;;;;;;;;4978365;28;19923;-52
2022/12/12 01:30:37;;;;;;;;;;;;;;;;;;4986961;28;20464;-53
2022/12/12 01:33:03;;;;;;;;;;;;;;;;;;4979892;28;19928;-52
2022/12/12 01:35:29;;;;;;;;;;;;;;;;;;4973922;28;19926;-53
2022/12/12 01:37:55;;;;;;;;;;;;;;;;;;4992379;28;20370;-52
2022/12/12 01:40:21;;;;;;;;;;;;;;;;;;4987617;28;20496;-53
2022/12/12 01:42:47;;;;;;;;;;;;;;;;;;4996027;28;19931;-52
2022/12/12 01:45:13;;;;;;;;;;;;;;;;;;4973750;28;19929;-53
2022/12/12 01:47:39;;;;;;;;;;;;;;;;;;4983626;28;20410;-53
2022/12/12 01:50:04;;;;;;;;;;;;;;;;;;4970471;28;19926;-53
2022/12/12 01:52:30;;;;;;;;;;;;;;;;;;4990189;28;19929;-53
2022/12/12 01:54:56;;;;;;;;;;;;;;;;;;4964809;28;20334;-53
2022/12/12 01:57:22;;;;;;;;;;;;;;;;;;4983685;28;20009;-51
2022/12/12 01:59:48;;;;;;;;;;;;;;;;;;4969120;28;19926;-52
2022/12/12 02:02:14;;;;;;;;;;;;;;;;;;4976454;28;19924;-53
2022/12/12 02:04:40;;;;;;;;;;;;;;;;;;4966136;28;19918;-51
2022/12/12 02:07:06;;;;;;;;;;;;;;;;;;4987165;28;19925;-54
2022/12/12 02:09:31;;;;;;;;;;;;;;;;;;4991015;28;19932;-52
2022/12/12 02:11:58;;;;;;;;;;;;;;;;;;4983524;28;19921;-52
2022/12/12 02:14:24;;;;;;;;;;;;;;;;;;4970339;28;20485;-52
2022/12/12 02:16:49;;;;;;;;;;;;;;;;;;4970719;28;19926;-52
2022/12/12 02:19:15;;;;;;;;;;;;;;;;;;4984202;28;19926;-53
2022/12/12 02:21:41;;;;;;;;;;;;;;;;;;4981436;28;19983;-52
2022/12/12 02:24:07;;;;;;;;;;;;;;;;;;4970794;28;19917;-52
2022/12/12 02:26:33;;;;;;;;;;;;;;;;;;4983588;28;19973;-53
2022/12/12 02:28:59;;;;;;;;;;;;;;;;;;4974214;28;19918;-53
2022/12/12 02:31:24;;;;;;;;;;;;;;;;;;4968101;28;20456;-52
2022/12/12 02:33:50;;;;;;;;;;;;;;;;;;4975861;28;19931;-52
2022/12/12 02:36:16;;;;;;;;;;;;;;;;;;4974527;28;19929;-53
2022/12/12 02:38:42;;;;;;;;;;;;;;;;;;4974460;28;20524;-52
2022/12/12 02:41:08;;;;;;;;;;;;;;;;;;4979693;28;20418;-53
2022/12/12 02:43:34;;;;;;;;;;;;;;;;;;4970785;28;19921;-53
2022/12/12 02:46:00;;;;;;;;;;;;;;;;;;4975049;28;19980;-52
2022/12/12 02:48:26;;;;;;;;;;;;;;;;;;4969196;28;19923;-53
2022/12/12 02:50:52;;;;;;;;;;;;;;;;;;4976663;28;19972;-53
2022/12/12 02:53:18;;;;;;;;;;;;;;;;;;4972439;28;20001;-52
2022/12/12 02:55:43;;;;;;;;;;;;;;;;;;4973005;28;20570;-53
2022/12/12 02:58:09;;;;;;;;;;;;;;;;;;4979016;28;20869;-52
2022/12/12 03:00:35;;;;;;;;;;;;;;;;;;4977548;28;20025;-52
2022/12/12 03:08:30;;;;;;;;;;;;;;;;;;4983961;28;20024;-53
2022/12/12 03:10:56;;;;;;;;;;;;;;;;;;4986418;28;20009;-53
2022/12/12 03:13:22;;;;;;;;;;;;;;;;;;4984264;28;20234;-52
2022/12/12 03:15:48;;;;;;;;;;;;;;;;;;4978182;28;20008;-53
2022/12/12 03:18:14;;;;;;;;;;;;;;;;;;4978225;28;19921;-52
2022/12/12 03:20:40;;;;;;;;;;;;;;;;;;4977915;28;20028;-52
2022/12/12 03:23:06;;;;;;;;;;;;;;;;;;4968996;28;19917;-53
2022/12/12 03:25:33;;;;;;;;;;;;;;;;;;4968182;28;20455;-53
2022/12/12 03:27:59;;;;;;;;;;;;;;;;;;4970013;28;19926;-52
2022/12/12 03:30:25;;;;;;;;;;;;;;;;;;4959483;28;20246;-52
2022/12/12 03:32:50;;;;;;;;;;;;;;;;;;4969221;28;19932;-52
2022/12/12 03:35:16;;;;;;;;;;;;;;;;;;4966863;28;19957;-51
2022/12/12 03:37:42;;;;;;;;;;;;;;;;;;4977836;28;19992;-53
2022/12/12 03:40:08;;;;;;;;;;;;;;;;;;4982395;28;20394;-52
2022/12/12 03:42:34;;;;;;;;;;;;;;;;;;4983460;28;19976;-53
2022/12/12 03:45:00;;;;;;;;;;;;;;;;;;4973028;28;20047;-52
2022/12/12 03:47:26;;;;;;;;;;;;;;;;;;4966792;28;20107;-52
2022/12/12 03:49:52;;;;;;;;;;;;;;;;;;4958209;28;19926;-53
2022/12/12 03:52:18;;;;;;;;;;;;;;;;;;4972752;28;20405;-52
2022/12/12 03:54:44;;;;;;;;;;;;;;;;;;4971655;28;19917;-52
2022/12/12 03:57:10;;;;;;;;;;;;;;;;;;4962064;28;19925;-52
2022/12/12 03:59:35;;;;;;;;;;;;;;;;;;4974461;28;20460;-53
2022/12/12 04:02:01;;;;;;;;;;;;;;;;;;4968486;28;20036;-52
2022/12/12 04:04:27;;;;;;;;;;;;;;;;;;4978486;28;19925;-52
2022/12/12 04:06:53;;;;;;;;;;;;;;;;;;4986069;28;19949;-53
2022/12/12 04:14:48;;;;;;;;;;;;;;;;;;4980414;28;20135;-52
2022/12/12 04:17:14;;;;;;;;;;;;;;;;;;4964334;28;20423;-54
2022/12/12 04:25:09;;;;;;;;;;;;;;;;;;4969016;28;19991;-52
2022/12/12 04:27:35;;;;;;;;;;;;;;;;;;4974289;28;20151;-53
2022/12/12 04:30:01;;;;;;;;;;;;;;;;;;5001475;28;20659;-53
2022/12/12 04:32:27;;;;;;;;;;;;;;;;;;4988917;28;19925;-52
2022/12/12 04:34:53;;;;;;;;;;;;;;;;;;4986908;28;19968;-52
2022/12/12 04:37:19;;;;;;;;;;;;;;;;;;4995298;28;20417;-52
2022/12/12 04:39:44;;;;;;;;;;;;;;;;;;4973010;28;20019;-51
2022/12/12 04:42:10;;;;;;;;;;;;;;;;;;4983124;28;19949;-52
2022/12/12 04:44:36;;;;;;;;;;;;;;;;;;4981074;28;19920;-53
2022/12/12 04:47:02;;;;;;;;;;;;;;;;;;4981467;28;19968;-52
2022/12/12 04:49:28;;;;;;;;;;;;;;;;;;4995351;28;19922;-51
2022/12/12 04:51:54;;;;;;;;;;;;;;;;;;4984104;28;19932;-53
2022/12/12 04:54:20;;;;;;;;;;;;;;;;;;4993418;28;20323;-54
2022/12/12 04:56:45;;;;;;;;;;;;;;;;;;4978763;28;19925;-52
2022/12/12 04:59:11;;;;;;;;;;;;;;;;;;4975637;28;20554;-52
2022/12/12 05:01:37;;;;;;;;;;;;;;;;;;4968952;28;19940;-53
2022/12/12 05:04:03;;;;;;;;;;;;;;;;;;4993226;28;19926;-53
2022/12/12 05:06:29;;;;;;;;;;;;;;;;;;4992329;28;19972;-52
2022/12/12 05:08:55;;;;;;;;;;;;;;;;;;4998869;28;19924;-52
2022/12/12 05:11:21;;;;;;;;;;;;;;;;;;4996777;28;20502;-53
2022/12/12 05:13:47;;;;;;;;;;;;;;;;;;4993170;28;19960;-52
2022/12/12 05:16:13;;;;;;;;;;;;;;;;;;4973550;28;20201;-52
2022/12/12 05:18:38;;;;;;;;;;;;;;;;;;4997969;28;20015;-52
2022/12/12 05:21:04;;;;;;;;;;;;;;;;;;5001831;28;19929;-52
2022/12/12 05:23:30;;;;;;;;;;;;;;;;;;4983640;28;20302;-52
2022/12/12 05:25:56;;;;;;;;;;;;;;;;;;4980007;28;19925;-53
2022/12/12 05:28:22;;;;;;;;;;;;;;;;;;5007785;28;19925;-52
2022/12/12 05:30:48;;;;;;;;;;;;;;;;;;4989595;28;19925;-52
2022/12/12 05:33:14;;;;;;;;;;;;;;;;;;5002197;28;19949;-53
2022/12/12 05:35:39;;;;;;;;;;;;;;;;;;4992455;28;20011;-52
2022/12/12 05:38:05;;;;;;;;;;;;;;;;;;4992880;28;19968;-53
2022/12/12 05:40:31;;;;;;;;;;;;;;;;;;5006577;28;19930;-51
2022/12/12 05:42:57;;;;;;;;;;;;;;;;;;5003197;28;20385;-52
2022/12/12 05:45:23;;;;;;;;;;;;;;;;;;4985802;28;20431;-52
2022/12/12 05:47:49;;;;;;;;;;;;;;;;;;4985297;28;20382;-53
2022/12/12 05:50:15;;;;;;;;;;;;;;;;;;4980714;28;19921;-52
2022/12/12 05:52:41;;;;;;;;;;;;;;;;;;4998427;28;19932;-52
2022/12/12 05:55:06;;;;;;;;;;;;;;;;;;5000998;28;19947;-52
2022/12/12 05:57:33;;;;;;;;;;;;;;;;;;4984873;28;21899;-52
2022/12/12 05:59:58;;;;;;;;;;;;;;;;;;5003409;28;19925;-51
2022/12/12 06:02:24;;;;;;;;;;;;;;;;;;4999958;28;20543;-52
2022/12/12 06:04:50;;;;;;;;;;;;;;;;;;5003950;28;20263;-52
2022/12/12 06:07:16;;;;;;;;;;;;;;;;;;5011419;28;19922;-52
2022/12/12 06:09:42;;;;;;;;;;;;;;;;;;4985961;28;19932;-51
2022/12/12 06:12:08;;;;;;;;;;;;;;;;;;4975812;28;20795;-53
2022/12/12 06:14:34;;;;;;;;;;;;;;;;;;4978153;28;19936;-51
2022/12/12 06:17:00;;;;;;;;;;;;;;;;;;4993785;28;20056;-51
2022/12/12 06:19:25;;;;;;;;;;;;;;;;;;5006281;28;19936;-52
2022/12/12 06:21:51;;;;;;;;;;;;;;;;;;4992866;28;20610;-51
2022/12/12 06:24:17;;;;;;;;;;;;;;;;;;4991931;28;19925;-51
2022/12/12 06:26:43;;;;;;;;;;;;;;;;;;5006913;28;19917;-51
2022/12/12 06:29:09;;;;;;;;;;;;;;;;;;4996668;28;19921;-52
2022/12/12 06:31:35;;;;;;;;;;;;;;;;;;4990279;28;19932;-52
2022/12/12 06:34:01;;;;;;;;;;;;;;;;;;4978213;28;20144;-51
2022/12/12 06:36:27;;;;;;;;;;;;;;;;;;4996914;28;20419;-52
2022/12/12 06:38:53;;;;;;;;;;;;;;;;;;5007217;28;22003;-52
2022/12/12 06:41:18;;;;;;;;;;;;;;;;;;5001053;28;19975;-53
2022/12/12 06:43:44;;;;;;;;;;;;;;;;;;5008466;28;19921;-52
2022/12/12 06:46:10;;;;;;;;;;;;;;;;;;5019149;28;19971;-52
2022/12/12 06:48:36;;;;;;;;;;;;;;;;;;4994214;28;19957;-52
2022/12/12 06:51:02;;;;;;;;;;;;;;;;;;5001795;28;19925;-52
2022/12/12 06:53:28;;;;;;;;;;;;;;;;;;4989465;28;20015;-53
2022/12/12 06:55:54;;;;;;;;;;;;;;;;;;5019374;28;19921;-53
2022/12/12 06:58:20;;;;;;;;;;;;;;;;;;5012260;28;20375;-51
2022/12/12 07:00:45;;;;;;;;;;;;;;;;;;5017113;28;20032;-52
2022/12/12 07:03:12;;;;;;;;;;;;;;;;;;4995440;28;20583;-53
2022/12/12 07:05:38;;;;;;;;;;;;;;;;;;5000784;28;19968;-52
2022/12/12 07:08:04;;;;;;;;;;;;;;;;;;5005382;28;19945;-52
2022/12/12 07:10:30;;;;;;;;;;;;;;;;;;5008027;28;19925;-51
2022/12/12 07:12:55;;;;;;;;;;;;;;;;;;5011715;28;19928;-52
2022/12/12 07:15:21;;;;;;;;;;;;;;;;;;5007220;28;20171;-52
2022/12/12 07:17:47;;;;;;;;;;;;;;;;;;5016574;28;19943;-52
2022/12/12 07:20:13;;;;;;;;;;;;;;;;;;5006097;28;20330;-52
2022/12/12 07:22:39;;;;;;;;;;;;;;;;;;5018044;28;20011;-51
2022/12/12 07:25:07;;;;;;;;;;;;;;;;;;5011903;28;19940;-53
2022/12/12 07:27:33;;;;;;;;;;;;;;;;;;5004707;28;19921;-52
2022/12/12 07:29:59;;;;;;;;;;;;;;;;;;5009921;28;19928;-52
2022/12/12 07:32:25;;;;;;;;;;;;;;;;;;4993313;28;20339;-52
2022/12/12 07:34:50;;;;;;;;;;;;;;;;;;4993880;28;21964;-52
2022/12/12 07:37:16;;;;;;;;;;;;;;;;;;5002089;28;19917;-53
2022/12/12 07:39:42;;;;;;;;;;;;;;;;;;5006321;28;19991;-51
2022/12/12 07:42:08;;;;;;;;;;;;;;;;;;5003606;28;19921;-53
2022/12/12 07:44:34;;;;;;;;;;;;;;;;;;5012136;28;20478;-51
2022/12/12 07:47:00;;;;;;;;;;;;;;;;;;5004892;28;20011;-53
2022/12/12 07:49:26;;;;;;;;;;;;;;;;;;4990604;28;20224;-52
2022/12/12 07:51:52;;;;;;;;;;;;;;;;;;5009150;28;20024;-52
2022/12/12 07:54:18;;;;;;;;;;;;;;;;;;5000482;28;19921;-53
2022/12/12 07:56:43;;;;;;;;;;;;;;;;;;4975634;28;20482;-52
2022/12/12 07:59:10;;;;;;;;;;;;;;;;;;5014814;28;19921;-51
2022/12/12 08:01:36;;;;;;;;;;;;;;;;;;5000404;28;19984;-53
2022/12/12 08:04:02;;;;;;;;;;;;;;;;;;5011299;28;19925;-53
2022/12/12 08:06:28;;;;;;;;;;;;;;;;;;5015639;28;20047;-52
2022/12/12 08:08:54;;;;;;;;;;;;;;;;;;5014589;28;19922;-53
2022/12/12 08:11:20;;;;;;;;;;;;;;;;;;5003468;28;20017;-52
2022/12/12 08:13:46;;;;;;;;;;;;;;;;;;5010622;28;20024;-52
2022/12/12 08:16:11;;;;;;;;;;;;;;;;;;5010109;28;20812;-53
2022/12/12 08:18:37;;;;;;;;;;;;;;;;;;4992534;28;19921;-52
2022/12/12 08:21:03;;;;;;;;;;;;;;;;;;5022229;28;20477;-52
2022/12/12 08:23:29;;;;;;;;;;;;;;;;;;4991998;28;19949;-53
2022/12/12 08:25:55;;;;;;;;;;;;;;;;;;5005576;28;19976;-52
2022/12/12 08:28:21;;;;;;;;;;;;;;;;;;5010006;28;19931;-52
2022/12/12 08:30:47;;;;;;;;;;;;;;;;;;5022469;28;19916;-51
2022/12/12 08:33:13;;;;;;;;;;;;;;;;;;5015566;28;19980;-52
2022/12/12 08:35:38;;;;;;;;;;;;;;;;;;5023696;28;20351;-51
2022/12/12 08:38:04;;;;;;;;;;;;;;;;;;5022015;28;20408;-52
2022/12/12 08:40:30;;;;;;;;;;;;;;;;;;5014724;28;19930;-52
2022/12/12 08:42:56;;;;;;;;;;;;;;;;;;5011132;28;19921;-52
2022/12/12 08:45:22;;;;;;;;;;;;;;;;;;5014629;28;19916;-51
2022/12/12 08:47:48;;;;;;;;;;;;;;;;;;5013567;28;19979;-52
2022/12/12 08:50:14;;;;;;;;;;;;;;;;;;5012870;28;19925;-52
2022/12/12 08:52:39;;;;;;;;;;;;;;;;;;5008917;28;20004;-52
2022/12/12 08:55:05;;;;;;;;;;;;;;;;;;5011853;28;19917;-52
2022/12/12 08:57:31;;;;;;;;;;;;;;;;;;5017526;28;19926;-51
2022/12/12 08:59:57;;;;;;;;;;;;;;;;;;5013751;28;20042;-52
2022/12/12 09:02:23;;;;;;;;;;;;;;;;;;5020913;28;19925;-52
2022/12/12 09:04:49;;;;;;;;;;;;;;;;;;5017197;28;20632;-52
2022/12/12 09:07:15;;;;;;;;;;;;;;;;;;5019326;28;19924;-51
2022/12/12 09:09:41;;;;;;;;;;;;;;;;;;5018455;28;19925;-52
2022/12/12 09:12:06;;;;;;;;;;;;;;;;;;5016363;28;20508;-52
2022/12/12 09:14:32;;;;;;;;;;;;;;;;;;5016348;28;19922;-52
2022/12/12 09:16:58;;;;;;;;;;;;;;;;;;5025242;28;20249;-52
2022/12/12 09:19:24;;;;;;;;;;;;;;;;;;5017551;28;19921;-51
2022/12/12 09:21:50;;;;;;;;;;;;;;;;;;5032706;28;19979;-51
2022/12/12 09:24:16;;;;;;;;;;;;;;;;;;5012418;28;19917;-51
2022/12/12 09:26:42;;;;;;;;;;;;;;;;;;5011404;28;19940;-52
2022/12/12 09:29:08;;;;;;;;;;;;;;;;;;5009752;28;20586;-52
2022/12/12 09:31:33;;;;;;;;;;;;;;;;;;5016011;28;19929;-52
2022/12/12 09:33:59;;;;;;;;;;;;;;;;;;5008944;28;19992;-53
2022/12/12 09:36:25;;;;;;;;;;;;;;;;;;5017781;28;19921;-53
2022/12/12 09:38:51;;;;;;;;;;;;;;;;;;5016173;28;19979;-52
2022/12/12 09:41:17;;;;;;;;;;;;;;;;;;5014521;28;19948;-52
2022/12/12 09:43:43;;;;;;;;;;;;;;;;;;5022170;28;19925;-52
2022/12/12 09:46:09;;;;;;;;;;;;;;;;;;5017063;28;19926;-52
2022/12/12 09:48:36;;;;;;;;;;;;;;;;;;5025703;28;20080;-52
2022/12/12 09:51:02;;;;;;;;;;;;;;;;;;5019272;28;19928;-52
2022/12/12 09:53:28;;;;;;;;;;;;;;;;;;5006203;28;19925;-52
2022/12/12 09:55:54;;;;;;;;;;;;;;;;;;5017793;28;20320;-52
2022/12/12 09:58:20;;;;;;;;;;;;;;;;;;5014269;28;19941;-51
2022/12/12 10:00:45;;;;;;;;;;;;;;;;;;5007451;28;19975;-53
2022/12/12 10:03:11;;;;;;;;;;;;;;;;;;5020313;28;19924;-52
2022/12/12 10:05:37;;;;;;;;;;;;;;;;;;5015445;28;20016;-52
2022/12/12 10:08:03;;;;;;;;;;;;;;;;;;5010920;28;20021;-52
2022/12/12 10:10:29;;;;;;;;;;;;;;;;;;5020108;28;19925;-52
2022/12/12 10:12:55;;;;;;;;;;;;;;;;;;5019134;28;19932;-52
2022/12/12 10:15:21;;;;;;;;;;;;;;;;;;5008111;28;19925;-53
2022/12/12 10:17:46;;;;;;;;;;;;;;;;;;5021222;28;20017;-52
2022/12/12 10:20:12;;;;;;;;;;;;;;;;;;5014961;28;19929;-52
2022/12/12 10:22:38;;;;;;;;;;;;;;;;;;5015657;28;19925;-53
2022/12/12 10:25:04;;;;;;;;;;;;;;;;;;5027558;28;19939;-53
2022/12/12 10:27:30;;;;;;;;;;;;;;;;;;5009038;28;20444;-53
2022/12/12 10:29:56;;;;;;;;;;;;;;;;;;5005051;28;20071;-52
2022/12/12 10:32:22;;;;;;;;;;;;;;;;;;5022065;28;20268;-52
2022/12/12 10:34:48;;;;;;;;;;;;;;;;;;5025070;28;19940;-52
2022/12/12 10:37:14;;;;;;;;;;;;;;;;;;5009174;28;19978;-51
2022/12/12 10:39:39;;;;;;;;;;;;;;;;;;5015464;28;20846;-52
2022/12/12 10:42:05;;;;;;;;;;;;;;;;;;5003871;28;20027;-52
2022/12/12 10:44:31;;;;;;;;;;;;;;;;;;5027966;28;20015;-53
2022/12/12 10:46:57;;;;;;;;;;;;;;;;;;5021837;28;20548;-52
2022/12/12 10:49:23;;;;;;;;;;;;;;;;;;5011295;28;19918;-52
2022/12/12 10:51:49;;;;;;;;;;;;;;;;;;5023686;28;19924;-53
2022/12/12 10:54:15;;;;;;;;;;;;;;;;;;5012210;28;21209;-52
2022/12/12 10:56:45;;;;;;;;;;;;;;;;;;5018483;28;19921;-53
2022/12/12 10:59:11;;;;;;;;;;;;;;;;;;5029427;28;19931;-53
2022/12/12 11:01:38;;;;;;;;;;;;;;;;;;5013856;28;19921;-54
2022/12/12 11:04:04;;;;;;;;;;;;;;;;;;5018449;28;19925;-52
2022/12/12 11:06:30;;;;;;;;;;;;;;;;;;5013451;28;19932;-53
2022/12/12 11:08:56;;;;;;;;;;;;;;;;;;4991583;28;20024;-53
2022/12/12 11:11:22;;;;;;;;;;;;;;;;;;4988280;28;19976;-54
2022/12/12 11:13:48;;;;;;;;;;;;;;;;;;4980144;28;19985;-53
2022/12/12 11:16:14;;;;;;;;;;;;;;;;;;5000736;28;19921;-54
2022/12/12 11:18:40;;;;;;;;;;;;;;;;;;4973123;28;19934;-54
2022/12/12 11:21:06;;;;;;;;;;;;;;;;;;4982119;28;19929;-53
2022/12/12 11:23:32;;;;;;;;;;;;;;;;;;4987108;28;19979;-53
2022/12/12 11:25:58;;;;;;;;;;;;;;;;;;4979780;28;20572;-53
2022/12/12 11:28:24;;;;;;;;;;;;;;;;;;4996123;28;19921;-53
2022/12/12 11:30:50;;;;;;;;;;;;;;;;;;5000259;28;20004;-53
2022/12/12 11:33:15;;;;;;;;;;;;;;;;;;4962112;28;20001;-53
2022/12/12 11:35:41;;;;;;;;;;;;;;;;;;4979894;28;20363;-53
2022/12/12 11:38:07;;;;;;;;;;;;;;;;;;4991927;28;19953;-54
2022/12/12 11:40:33;;;;;;;;;;;;;;;;;;4977063;28;20877;-53
2022/12/12 11:43:01;;;;;;;;;;;;;;;;;;4984453;28;25956;-53
2022/12/12 11:45:27;;;;;;;;;;;;;;;;;;4977793;28;20386;-53
2022/12/12 11:47:54;;;;;;;;;;;;;;;;;;4971568;28;19928;-53
2022/12/12 11:50:19;;;;;;;;;;;;;;;;;;4966980;28;19926;-53
2022/12/12 11:52:45;;;;;;;;;;;;;;;;;;4986083;28;19918;-53
2022/12/12 11:55:11;;;;;;;;;;;;;;;;;;4958211;28;19925;-53
2022/12/12 11:57:37;;;;;;;;;;;;;;;;;;4966875;28;20148;-53
2022/12/12 12:00:04;;;;;;;;;;;;;;;;;;4979454;28;19920;-53
2022/12/12 12:02:30;;;;;;;;;;;;;;;;;;4979159;28;19925;-52
2022/12/12 12:04:56;;;;;;;;;;;;;;;;;;4996302;28;19928;-53
2022/12/12 12:07:22;;;;;;;;;;;;;;;;;;4988140;28;19928;-54
2022/12/12 12:09:48;;;;;;;;;;;;;;;;;;4997437;28;19925;-52
2022/12/12 12:12:14;;;;;;;;;;;;;;;;;;5003921;28;20024;-53
2022/12/12 12:14:40;;;;;;;;;;;;;;;;;;4977815;28;19922;-53
2022/12/12 12:17:06;;;;;;;;;;;;;;;;;;4995089;28;20077;-52
2022/12/12 12:19:32;;;;;;;;;;;;;;;;;;4986855;28;19945;-53
2022/12/12 12:21:58;;;;;;;;;;;;;;;;;;4977322;28;19930;-52
2022/12/12 12:24:24;;;;;;;;;;;;;;;;;;4990965;28;19975;-53
2022/12/12 12:26:49;;;;;;;;;;;;;;;;;;4979493;28;19932;-53
2022/12/12 12:29:15;;;;;;;;;;;;;;;;;;4963581;28;19917;-53
2022/12/12 12:31:41;;;;;;;;;;;;;;;;;;4984077;28;19975;-52
2022/12/12 12:34:07;;;;;;;;;;;;;;;;;;4983496;28;20697;-53
2022/12/12 12:36:33;;;;;;;;;;;;;;;;;;4981119;28;19921;-52
2022/12/12 12:38:59;;;;;;;;;;;;;;;;;;4980311;28;20032;-52
2022/12/12 12:41:25;;;;;;;;;;;;;;;;;;4988792;28;20390;-53
2022/12/12 12:43:50;;;;;;;;;;;;;;;;;;4975219;28;19940;-53
2022/12/12 12:46:16;;;;;;;;;;;;;;;;;;4992869;28;19913;-52
2022/12/12 12:48:42;;;;;;;;;;;;;;;;;;4999469;28;20338;-53
2022/12/12 12:51:08;;;;;;;;;;;;;;;;;;4991211;28;19921;-52
2022/12/12 12:53:34;;;;;;;;;;;;;;;;;;4993640;28;19922;-53
2022/12/12 12:56:00;;;;;;;;;;;;;;;;;;4987486;28;19937;-53
2022/12/12 12:58:26;;;;;;;;;;;;;;;;;;5004440;28;19995;-51
2022/12/12 13:00:52;;;;;;;;;;;;;;;;;;5012309;28;19968;-52
2022/12/12 13:03:18;;;;;;;;;;;;;;;;;;5002677;28;19922;-53
2022/12/12 13:05:43;;;;;;;;;;;;;;;;;;4975568;28;20400;-53
2022/12/12 13:08:10;;;;;;;;;;;;;;;;;;4994353;28;19918;-52
2022/12/12 13:10:36;;;;;;;;;;;;;;;;;;4975812;28;19926;-52
2022/12/12 13:13:02;;;;;;;;;;;;;;;;;;4984651;28;20608;-53
2022/12/12 13:15:28;;;;;;;;;;;;;;;;;;4988743;28;20067;-53
2022/12/12 13:17:53;;;;;;;;;;;;;;;;;;4991719;28;19925;-53
2022/12/12 13:20:19;;;;;;;;;;;;;;;;;;5000898;28;19925;-52
2022/12/12 13:22:45;;;;;;;;;;;;;;;;;;4994625;28;21454;-51
2022/12/12 13:25:11;;;;;;;;;;;;;;;;;;4994593;28;19917;-54
2022/12/12 13:27:39;;;;;;;;;;;;;;;;;;4982848;28;20004;-53
2022/12/12 13:30:05;;;;;;;;;;;;;;;;;;4981387;28;19917;-52
2022/12/12 13:32:31;;;;;;;;;;;;;;;;;;4985593;28;19926;-52
2022/12/12 13:34:57;;;;;;;;;;;;;;;;;;4990589;28;19951;-53
2022/12/12 13:37:23;;;;;;;;;;;;;;;;;;4987481;28;20053;-53
2022/12/12 13:39:49;;;;;;;;;;;;;;;;;;4973257;28;19942;-52
2022/12/12 13:42:15;;;;;;;;;;;;;;;;;;4984383;28;20122;-53
2022/12/12 13:44:41;;;;;;;;;;;;;;;;;;4997011;28;20306;-52
2022/12/12 13:47:07;;;;;;;;;;;;;;;;;;4975051;28;19930;-52
2022/12/12 13:49:33;;;;;;;;;;;;;;;;;;4976688;28;20326;-53
2022/12/12 13:51:59;;;;;;;;;;;;;;;;;;4977731;28;19930;-52
2022/12/12 13:54:25;;;;;;;;;;;;;;;;;;4973216;28;20430;-53
2022/12/12 13:56:50;;;;;;;;;;;;;;;;;;4992500;28;19926;-52
2022/12/12 13:59:16;;;;;;;;;;;;;;;;;;4989357;28;19922;-52
2022/12/12 14:01:42;;;;;;;;;;;;;;;;;;4988921;28;19995;-51
2022/12/12 14:04:08;;;;;;;;;;;;;;;;;;4979307;28;21293;-52
2022/12/12 14:06:34;;;;;;;;;;;;;;;;;;4981237;28;19922;-53
2022/12/12 14:09:00;;;;;;;;;;;;;;;;;;4988281;28;19964;-52
2022/12/12 14:11:26;;;;;;;;;;;;;;;;;;4984174;28;19918;-52
2022/12/12 14:13:53;;;;;;;;;;;;;;;;;;4993665;28;20363;-53
2022/12/12 14:16:19;;;;;;;;;;;;;;;;;;5000579;28;19966;-53
2022/12/12 14:18:45;;;;;;;;;;;;;;;;;;4979641;28;24965;-52
2022/12/12 14:21:11;;;;;;;;;;;;;;;;;;4994489;28;19925;-52
2022/12/12 14:23:37;;;;;;;;;;;;;;;;;;4983574;28;20394;-52
2022/12/12 14:26:03;;;;;;;;;;;;;;;;;;4964931;28;19921;-52
2022/12/12 14:28:29;;;;;;;;;;;;;;;;;;4991586;28;19933;-53
2022/12/12 14:30:55;;;;;;;;;;;;;;;;;;4995721;28;19925;-52
2022/12/12 14:33:21;;;;;;;;;;;;;;;;;;4987342;28;19929;-53
2022/12/12 14:35:47;;;;;;;;;;;;;;;;;;4964983;28;19932;-54
2022/12/12 14:38:13;;;;;;;;;;;;;;;;;;4969172;28;20507;-52
2022/12/12 14:40:39;;;;;;;;;;;;;;;;;;4963475;28;19988;-54
2022/12/12 14:43:05;;;;;;;;;;;;;;;;;;4982531;28;19920;-53
2022/12/12 14:45:31;;;;;;;;;;;;;;;;;;4968410;28;19926;-53
2022/12/12 14:47:57;;;;;;;;;;;;;;;;;;4986388;28;19910;-52
2022/12/12 14:50:22;;;;;;;;;;;;;;;;;;4995801;28;19921;-52
2022/12/12 14:52:48;;;;;;;;;;;;;;;;;;4989293;28;19924;-52
2022/12/12 14:55:14;;;;;;;;;;;;;;;;;;4969167;28;19925;-52
2022/12/12 14:57:40;;;;;;;;;;;;;;;;;;4973784;28;20502;-53
2022/12/12 15:00:06;;;;;;;;;;;;;;;;;;4986731;28;19957;-52
2022/12/12 15:02:32;;;;;;;;;;;;;;;;;;4976767;28;19926;-52
2022/12/12 15:04:58;;;;;;;;;;;;;;;;;;4970140;28;20034;-53
2022/12/12 15:07:23;;;;;;;;;;;;;;;;;;4966990;28;19933;-53
2022/12/12 15:09:49;;;;;;;;;;;;;;;;;;4973018;28;19910;-52
2022/12/12 15:12:15;;;;;;;;;;;;;;;;;;4996475;28;19929;-52
2022/12/12 15:14:41;;;;;;;;;;;;;;;;;;4990687;28;19918;-52
2022/12/12 15:17:07;;;;;;;;;;;;;;;;;;4972364;28;20084;-52
2022/12/12 15:19:33;;;;;;;;;;;;;;;;;;4983191;28;19929;-53
2022/12/12 15:21:59;;;;;;;;;;;;;;;;;;4979346;28;19944;-53
2022/12/12 15:24:25;;;;;;;;;;;;;;;;;;4977294;28;19913;-51
2022/12/12 15:26:51;;;;;;;;;;;;;;;;;;4958448;28;20265;-52
2022/12/12 15:29:17;;;;;;;;;;;;;;;;;;4953052;28;19926;-52
2022/12/12 15:31:43;;;;;;;;;;;;;;;;;;4978413;28;19933;-52
2022/12/12 15:34:09;;;;;;;;;;;;;;;;;;4980014;28;20214;-52
2022/12/12 15:36:34;;;;;;;;;;;;;;;;;;4962349;28;19926;-52
2022/12/12 15:39:01;;;;;;;;;;;;;;;;;;4965551;28;19929;-52
2022/12/12 15:41:26;;;;;;;;;;;;;;;;;;4955678;28;19930;-53
2022/12/12 15:43:52;;;;;;;;;;;;;;;;;;4939584;28;20393;-52
2022/12/12 15:46:18;;;;;;;;;;;;;;;;;;4952914;28;20016;-52
2022/12/12 15:48:44;;;;;;;;;;;;;;;;;;4970469;28;19991;-52
2022/12/12 15:51:10;;;;;;;;;;;;;;;;;;4962158;28;20466;-52
2022/12/12 15:53:36;;;;;;;;;;;;;;;;;;4957034;28;19932;-53
2022/12/12 15:56:02;;;;;;;;;;;;;;;;;;4963634;28;20325;-53
2022/12/12 15:58:28;;;;;;;;;;;;;;;;;;4950972;28;19918;-51
2022/12/12 16:00:53;;;;;;;;;;;;;;;;;;4957877;28;19967;-52
2022/12/12 16:03:19;;;;;;;;;;;;;;;;;;4962228;28;19917;-53
2022/12/12 16:05:45;;;;;;;;;;;;;;;;;;4952622;28;20392;-53
2022/12/12 16:08:11;;;;;;;;;;;;;;;;;;4966132;28;19922;-52
2022/12/12 16:10:37;;;;;;;;;;;;;;;;;;4982345;28;19921;-53
2022/12/12 16:13:03;;;;;;;;;;;;;;;;;;4991288;28;19925;-52
2022/12/12 16:15:30;;;;;;;;;;;;;;;;;;4973206;28;19921;-53
2022/12/12 16:17:56;;;;;;;;;;;;;;;;;;4960749;28;20057;-53
2022/12/12 16:20:22;;;;;;;;;;;;;;;;;;5001469;28;19948;-52
2022/12/12 16:22:47;;;;;;;;;;;;;;;;;;4996247;28;20039;-52
2022/12/12 16:25:13;;;;;;;;;;;;;;;;;;4986240;28;20101;-51
2022/12/12 16:27:39;;;;;;;;;;;;;;;;;;4996756;28;20386;-52
2022/12/12 16:30:05;;;;;;;;;;;;;;;;;;4985895;28;19927;-52
2022/12/12 16:32:31;;;;;;;;;;;;;;;;;;4965699;28;19925;-52
2022/12/12 16:34:57;;;;;;;;;;;;;;;;;;4983884;28;19932;-53
2022/12/12 16:37:23;;;;;;;;;;;;;;;;;;4986770;28;19930;-53
2022/12/12 16:39:48;;;;;;;;;;;;;;;;;;4974787;28;19985;-52
2022/12/12 16:42:15;;;;;;;;;;;;;;;;;;4978837;28;19925;-52
2022/12/12 16:44:41;;;;;;;;;;;;;;;;;;4992141;28;19964;-52
2022/12/12 16:47:06;;;;;;;;;;;;;;;;;;4976362;28;20012;-53
2022/12/12 16:49:32;;;;;;;;;;;;;;;;;;4980069;28;19945;-52
2022/12/12 16:51:59;;;;;;;;;;;;;;;;;;4975779;28;20056;-52